Terminal Aerodrome Forecast
Issued by NWS Charleston, WV

Current Version | Previous Version | Text Only | Print | Product List | Glossary Off
Versions: 1 2 3 4 5 6 7 8 9 10 11 12 13 14 15 16 17 18 19 20 21 22 23

806
FTUS41 KRLX 181403 AAA
TAFHTS
TAF AMD
KHTS 181403Z 1814/1912 23004KT P6SM -SHRA BKN008 OVC020
     FM181700 26006KT P6SM SCT030 BKN040
     FM181900 26008KT P6SM SCT040
     FM190000 27003KT P6SM FEW070
     FM190700 00000KT 4SM BR FEW001
     FM190900 00000KT 1/2SM FG BKN001=

USA.gov is the U.S. government's official web portal to all federal, state and local government web resources and services.